Terminal Aerodrome Forecast
Issued by NWS Pueblo, CO

Home | Current Version | Previous Version | Text Only | Print | Product List | Glossary On
Versions: 1 2 3 4 5 6 7 8 9 10 11 12 13 14 15 16 17 18 19 20 21 22 23 24 25 26 27 28 29 30 31
000
FTUS45 KPUB 051124
TAFCOS
TAF
KCOS 051124Z 0512/0612 VRB06KT P6SM SCT090 BKN120
     FM051800 18012KT P6SM SCT090 BKN120
     FM052000 19012G22KT P6SM SCT100 BKN150
     FM060100 31009KT P6SM SCT100 BKN150
     FM060600 36007KT P6SM SCT200=

USA.gov is the U.S. government's official web portal to all federal, state and local government web resources and services.